Time;durP1;ratioP1;P1;durP2;ratioP2;P2;SDS_P1;SDS_P2;PMS_P1;PMS_P2;Temp;Humidity;BMP_temperature;BMP_pressure;BME280_temperature;BME280_humidity;BME280_pressure;Samples;Min_cycle;Max_cycle;Signal;HPM_P1;HPM_P2
2022/10/09 00:00:40;;;;;;;16.45;3.47;;;7.20;99.90;;;;;;4880505;29;20040;-87
2022/10/09 00:03:06;;;;;;;15.88;3.60;;;7.20;99.90;;;;;;4911877;29;20044;-86
2022/10/09 00:05:32;;;;;;;13.43;3.30;;;7.20;99.90;;;;;;4911818;29;20075;-87
2022/10/09 00:07:57;;;;;;;8.00;2.30;;;7.30;99.90;;;;;;4880595;29;20139;-86
2022/10/09 00:10:23;;;;;;;17.08;4.03;;;7.30;99.90;;;;;;4880768;29;20195;-87
2022/10/09 00:12:49;;;;;;;26.02;4.22;;;7.50;99.90;;;;;;4911751;29;20063;-86
2022/10/09 00:15:15;;;;;;;13.45;3.78;;;7.60;99.90;;;;;;4881238;29;20048;-87
2022/10/09 00:17:40;;;;;;;21.48;3.85;;;7.50;99.90;;;;;;4880744;29;20044;-87
2022/10/09 00:20:06;;;;;;;14.25;3.70;;;7.60;99.90;;;;;;4879684;29;20184;-86
2022/10/09 00:22:32;;;;;;;15.73;3.55;;;7.50;99.90;;;;;;4881721;29;20044;-86
2022/10/09 00:24:58;;;;;;;14.18;3.20;;;7.50;99.90;;;;;;4879604;29;20048;-86
2022/10/09 00:27:23;;;;;;;13.27;3.30;;;7.50;99.90;;;;;;4896559;29;20055;-86
2022/10/09 00:29:49;;;;;;;15.23;3.60;;;7.40;99.90;;;;;;4912171;29;20249;-87
2022/10/09 00:32:16;;;;;;;8.70;3.30;;;7.50;99.90;;;;;;4880093;29;20397;-86
2022/10/09 00:34:42;;;;;;;15.38;3.65;;;7.40;99.90;;;;;;4880220;29;20142;-86
2022/10/09 00:37:08;;;;;;;8.52;3.00;;;7.30;99.90;;;;;;4879785;29;20076;-86
2022/10/09 00:39:34;;;;;;;13.48;3.65;;;7.10;99.90;;;;;;4880128;29;20047;-87
2022/10/09 00:42:01;;;;;;;10.57;3.70;;;7.20;99.90;;;;;;4880162;29;20056;-86
2022/10/09 00:44:48;;;;;;;10.32;3.40;;;7.40;99.90;;;;;;4880441;29;20119;-86
2022/10/09 00:47:25;;;;;;;13.43;3.85;;;7.20;99.90;;;;;;4880447;29;20514;-87
2022/10/09 00:49:56;;;;;;;20.52;5.40;;;7.00;99.90;;;;;;4879552;29;20048;-87
2022/10/09 00:52:24;;;;;;;9.95;4.13;;;7.00;99.90;;;;;;4879782;29;20041;-87
2022/10/09 00:54:52;;;;;;;17.50;5.55;;;7.10;99.90;;;;;;4879812;29;20424;-86
2022/10/09 00:57:17;;;;;;;17.55;5.43;;;7.10;99.90;;;;;;4880919;29;20040;-87
2022/10/09 00:59:43;;;;;;;17.98;6.18;;;7.60;99.90;;;;;;4895151;29;20120;-87
2022/10/09 01:02:09;;;;;;;18.27;6.40;;;7.30;99.90;;;;;;4895646;29;20607;-87
2022/10/09 01:04:35;;;;;;;18.70;9.55;;;7.50;99.90;;;;;;4880154;29;20135;-86
2022/10/09 01:07:11;;;;;;;26.88;12.55;;;7.30;99.90;;;;;;4910305;29;20508;-86
2022/10/09 01:09:49;;;;;;;21.00;7.82;;;7.40;99.90;;;;;;4909327;29;20086;-87
2022/10/09 01:12:34;;;;;;;23.27;9.57;;;7.50;99.90;;;;;;4913963;29;20044;-87
2022/10/09 01:15:12;;;;;;;19.45;10.98;;;7.30;99.90;;;;;;4897577;29;20071;-87
2022/10/09 01:18:04;;;;;;;17.15;7.50;;;7.70;99.90;;;;;;4914237;29;20377;-86
2022/10/09 01:20:39;;;;;;;16.90;7.28;;;7.20;99.90;;;;;;4897820;29;20142;-87
2022/10/09 01:23:24;;;;;;;17.75;7.18;;;7.10;99.90;;;;;;4898238;29;20051;-86
2022/10/09 01:26:08;;;;;;;16.92;8.05;;;7.00;99.90;;;;;;4913479;29;20381;-87
2022/10/09 01:28:35;;;;;;;23.80;8.10;;;6.90;99.90;;;;;;4898448;29;20044;-87
2022/10/09 01:31:03;;;;;;;16.65;6.97;;;7.00;99.90;;;;;;4898468;29;20050;-86
2022/10/09 01:33:31;;;;;;;15.98;6.22;;;6.70;99.90;;;;;;4898259;29;20047;-86
2022/10/09 01:35:59;;;;;;;15.73;6.13;;;6.80;99.90;;;;;;4897425;29;20448;-87
2022/10/09 01:38:26;;;;;;;16.13;6.80;;;6.60;99.90;;;;;;4898113;29;20077;-87
2022/10/09 01:40:53;;;;;;;13.73;5.35;;;6.60;99.90;;;;;;4914036;29;20051;-87
2022/10/09 01:43:19;;;;;;;11.73;5.85;;;6.70;99.90;;;;;;4897415;29;20040;-87
2022/10/09 01:45:46;;;;;;;16.13;7.07;;;6.60;99.90;;;;;;4897903;29;20074;-86
2022/10/09 01:48:18;;;;;;;13.15;5.35;;;6.50;99.90;;;;;;4895142;29;20103;-87
2022/10/09 01:50:50;;;;;;;11.88;5.93;;;6.90;99.90;;;;;;4878187;29;20382;-87
2022/10/09 01:53:19;;;;;;;17.55;5.35;;;6.40;99.90;;;;;;4879029;29;20426;-87
2022/10/09 01:56:05;;;;;;;11.77;5.15;;;6.40;99.90;;;;;;4878880;29;20051;-87
2022/10/09 01:58:36;;;;;;;16.65;4.90;;;6.70;99.90;;;;;;4885453;29;20052;-87
2022/10/09 02:01:09;;;;;;;17.85;4.78;;;6.50;99.90;;;;;;4898046;29;20134;-88
2022/10/09 02:03:37;;;;;;;16.15;5.13;;;6.40;99.90;;;;;;4897587;29;20492;-87
2022/10/09 02:06:06;;;;;;;20.35;5.80;;;6.60;99.90;;;;;;4897227;29;20202;-86
2022/10/09 02:08:33;;;;;;;11.65;4.22;;;6.40;99.90;;;;;;4897726;29;20082;-87
2022/10/09 02:11:01;;;;;;;7.78;3.42;;;6.90;99.90;;;;;;4897285;29;20898;-87
2022/10/09 02:13:29;;;;;;;14.80;3.72;;;6.40;99.90;;;;;;4913183;29;20054;-88
2022/10/09 02:16:04;;;;;;;11.10;3.33;;;6.40;99.90;;;;;;4897494;29;20054;-86
2022/10/09 02:18:38;;;;;;;15.00;4.55;;;6.30;99.90;;;;;;4896590;29;20058;-87
2022/10/09 02:21:12;;;;;;;12.57;3.85;;;6.30;99.90;;;;;;4897065;29;20483;-87
2022/10/09 02:23:40;;;;;;;14.05;3.70;;;6.30;99.90;;;;;;4897998;29;20155;-87
2022/10/09 02:26:07;;;;;;;9.98;4.03;;;6.30;99.90;;;;;;4897253;29;20039;-86
2022/10/09 02:28:33;;;;;;;14.52;4.70;;;6.20;99.90;;;;;;4898480;29;20102;-87
2022/10/09 02:31:12;;;;;;;8.50;3.20;;;6.20;99.90;;;;;;4898907;29;20055;-87
2022/10/09 02:33:38;;;;;;;10.68;3.40;;;6.60;99.90;;;;;;4901709;29;20054;-87
2022/10/09 02:36:04;;;;;;;10.23;3.40;;;6.10;99.90;;;;;;4899570;29;20039;-86
2022/10/09 02:38:29;;;;;;;9.45;2.72;;;6.10;99.90;;;;;;4898177;29;20138;-87
2022/10/09 02:40:57;;;;;;;7.47;3.08;;;6.70;99.90;;;;;;4897423;29;20044;-87
2022/10/09 02:43:23;;;;;;;11.07;3.35;;;6.40;99.90;;;;;;4898481;29;20044;-87
2022/10/09 02:45:49;;;;;;;9.48;3.28;;;6.00;99.90;;;;;;4897192;29;20050;-87
2022/10/09 02:48:15;;;;;;;12.07;3.25;;;6.50;99.90;;;;;;4898510;29;20052;-87
2022/10/09 02:50:40;;;;;;;13.50;3.92;;;6.10;99.90;;;;;;4897948;29;20059;-87
2022/10/09 02:53:06;;;;;;;179.00;9.52;;;6.30;99.90;;;;;;4897240;29;20214;-87
2022/10/09 02:55:31;;;;;;;11.98;3.40;;;6.10;99.90;;;;;;4898240;29;20044;-87
2022/10/09 02:57:57;;;;;;;12.32;3.03;;;6.20;99.90;;;;;;4898481;29;20055;-87
2022/10/09 03:00:23;;;;;;;13.50;4.72;;;6.20;99.90;;;;;;4897221;29;20032;-87
2022/10/09 03:02:48;;;;;;;26.70;4.43;;;5.90;99.90;;;;;;4897897;29;20055;-86
2022/10/09 03:05:14;;;;;;;7.57;3.20;;;5.90;99.90;;;;;;4897029;29;20116;-87
2022/10/09 03:07:40;;;;;;;8.70;3.58;;;5.90;99.90;;;;;;4897181;29;20099;-87
2022/10/09 03:10:06;;;;;;;21.98;4.22;;;5.90;99.90;;;;;;4897616;29;20178;-86
2022/10/09 03:12:32;;;;;;;9.38;3.85;;;5.90;99.90;;;;;;4897765;29;20104;-86
2022/10/09 03:14:57;;;;;;;9.90;4.15;;;6.00;99.90;;;;;;4897024;29;20052;-87
2022/10/09 03:17:23;;;;;;;10.60;5.38;;;5.80;99.90;;;;;;4897325;29;20052;-87
2022/10/09 03:19:49;;;;;;;17.05;6.13;;;5.80;99.90;;;;;;4896702;29;20493;-86
2022/10/09 03:22:14;;;;;;;20.75;6.70;;;6.40;99.90;;;;;;4897741;29;20048;-87
2022/10/09 03:24:40;;;;;;;12.35;6.22;;;5.90;99.90;;;;;;4897552;29;20497;-87
2022/10/09 03:27:05;;;;;;;9.07;4.15;;;6.60;99.90;;;;;;4897568;29;20524;-86
2022/10/09 03:29:31;;;;;;;12.07;5.03;;;5.70;99.90;;;;;;4897323;29;20091;-87
2022/10/09 03:31:57;;;;;;;11.93;4.15;;;6.10;99.90;;;;;;4897545;29;20496;-87
2022/10/09 03:34:22;;;;;;;16.48;4.50;;;5.70;99.90;;;;;;4897088;29;20449;-86
2022/10/09 03:36:49;;;;;;;10.32;4.00;;;5.70;99.90;;;;;;4896152;29;20493;-87
2022/10/09 03:39:14;;;;;;;12.50;3.05;;;6.00;99.90;;;;;;4897221;29;20072;-87
2022/10/09 03:41:40;;;;;;;12.48;2.92;;;5.60;99.90;;;;;;4896058;29;20052;-86
2022/10/09 03:44:06;;;;;;;26.35;2.83;;;5.80;99.90;;;;;;4897106;29;20044;-86
2022/10/09 03:46:31;;;;;;;5.43;2.70;;;5.70;99.90;;;;;;4897063;29;20343;-87
2022/10/09 03:48:57;;;;;;;10.35;2.72;;;5.60;99.90;;;;;;4896511;29;20512;-87
2022/10/09 03:51:23;;;;;;;8.32;3.00;;;5.50;99.90;;;;;;4897142;29;20077;-87
2022/10/09 03:53:48;;;;;;;11.45;4.10;;;5.40;99.90;;;;;;4896791;29;20070;-86
2022/10/09 03:56:14;;;;;;;22.20;2.50;;;5.50;99.90;;;;;;4896363;29;20047;-86
2022/10/09 03:58:40;;;;;;;10.75;3.58;;;5.60;99.90;;;;;;4897222;29;20059;-87
2022/10/09 04:01:05;;;;;;;9.48;3.50;;;6.30;99.90;;;;;;4896504;29;20051;-87
2022/10/09 04:03:31;;;;;;;10.82;3.67;;;5.60;99.90;;;;;;4897358;29;20056;-86
2022/10/09 04:05:57;;;;;;;16.08;3.47;;;5.60;99.90;;;;;;4896101;29;20043;-85
2022/10/09 04:08:22;;;;;;;13.02;3.78;;;5.70;99.90;;;;;;4896861;29;20135;-87
2022/10/09 04:10:56;;;;;;;45.22;4.85;;;5.40;99.90;;;;;;4896011;29;20100;-87
2022/10/09 04:13:21;;;;;;;60.60;5.32;;;5.70;99.90;;;;;;4896801;29;20048;-86
2022/10/09 04:15:50;;;;;;;11.35;3.97;;;5.90;99.90;;;;;;4896931;29;20040;-87
2022/10/09 04:18:15;;;;;;;6.63;3.42;;;5.40;99.90;;;;;;4895866;29;20131;-87
2022/10/09 04:20:51;;;;;;;182.63;8.98;;;5.40;99.90;;;;;;4895807;29;20230;-86
2022/10/09 04:23:18;;;;;;;237.70;11.30;;;6.00;99.90;;;;;;4896480;29;20048;-86
2022/10/09 04:25:44;;;;;;;28.48;5.53;;;6.10;99.90;;;;;;4896602;29;20461;-87
2022/10/09 04:28:10;;;;;;;168.13;7.97;;;5.40;99.90;;;;;;4895844;29;20055;-87
2022/10/09 04:30:35;;;;;;;25.45;4.40;;;5.30;99.90;;;;;;4887339;29;20143;-87
2022/10/09 04:33:01;;;;;;;261.85;10.32;;;5.60;99.90;;;;;;4888770;29;20055;-87
2022/10/09 04:35:27;;;;;;;13.80;3.67;;;5.40;99.90;;;;;;4887319;29;20052;-87
2022/10/09 04:37:52;;;;;;;10.40;3.50;;;6.10;99.90;;;;;;4892045;29;20496;-87
2022/10/09 04:40:18;;;;;;;26.77;4.30;;;5.30;99.90;;;;;;4892496;29;20078;-87
2022/10/09 04:42:44;;;;;;;21.08;4.20;;;5.40;99.90;;;;;;4890699;29;20044;-87
2022/10/09 04:45:10;;;;;;;27.80;4.50;;;5.30;99.90;;;;;;4886854;29;20123;-86
2022/10/09 04:47:35;;;;;;;7.32;3.35;;;5.20;99.90;;;;;;4889207;29;20580;-87
2022/10/09 04:50:02;;;;;;;463.20;15.25;;;5.20;99.90;;;;;;4888172;29;20056;-87
2022/10/09 04:52:27;;;;;;;149.18;7.80;;;5.70;99.90;;;;;;4886264;29;20134;-87
2022/10/09 04:54:53;;;;;;;25.50;6.22;;;5.60;99.90;;;;;;4888818;29;20586;-86
2022/10/09 04:57:19;;;;;;;100.85;11.10;;;5.20;99.90;;;;;;4888109;29;20040;-87
2022/10/09 04:59:45;;;;;;;134.27;11.00;;;6.10;99.90;;;;;;4886843;29;20039;-86
2022/10/09 05:02:10;;;;;;;30.75;6.60;;;5.20;99.90;;;;;;4889497;29;20035;-87
2022/10/09 05:04:37;;;;;;;188.88;12.63;;;5.30;99.90;;;;;;4903599;29;20564;-87
2022/10/09 05:07:03;;;;;;;58.53;7.80;;;5.30;99.90;;;;;;4886960;29;20047;-87
2022/10/09 05:09:28;;;;;;;173.23;9.23;;;5.20;99.90;;;;;;4891511;29;20519;-87
2022/10/09 05:11:54;;;;;;;440.00;15.02;;;5.30;99.90;;;;;;4887626;29;20055;-87
2022/10/09 05:14:20;;;;;;;276.40;10.38;;;5.30;99.90;;;;;;4887632;29;20178;-87
2022/10/09 05:16:50;;;;;;;49.42;4.15;;;5.20;99.90;;;;;;4888240;29;20488;-87
2022/10/09 05:19:15;;;;;;;217.77;8.43;;;5.20;99.90;;;;;;4889581;29;20492;-87
2022/10/09 05:21:41;;;;;;;562.33;19.30;;;5.40;99.90;;;;;;4870663;29;20039;-87
2022/10/09 05:24:07;;;;;;;17.27;4.15;;;5.20;99.90;;;;;;4889022;29;20094;-87
2022/10/09 05:26:33;;;;;;;82.95;7.72;;;5.00;99.90;;;;;;4902507;29;20055;-86
2022/10/09 05:28:58;;;;;;;10.07;6.20;;;4.90;99.90;;;;;;4887663;29;20385;-87
2022/10/09 05:31:27;;;;;;;23.38;8.43;;;5.00;99.90;;;;;;4888940;29;20131;-87
2022/10/09 05:33:54;;;;;;;22.02;6.55;;;5.80;99.90;;;;;;4888299;29;20052;-87
2022/10/09 05:36:20;;;;;;;59.22;7.88;;;6.00;99.90;;;;;;4885844;29;20052;-87
2022/10/09 05:38:46;;;;;;;25.88;11.15;;;5.50;99.90;;;;;;4886564;29;20052;-87
2022/10/09 05:41:14;;;;;;;31.02;11.98;;;5.50;99.90;;;;;;4887987;29;20036;-87
2022/10/09 05:43:43;;;;;;;16.55;8.40;;;5.60;99.90;;;;;;4887637;29;20055;-87
2022/10/09 05:46:10;;;;;;;16.92;9.32;;;5.90;99.90;;;;;;4886646;29;20436;-87
2022/10/09 05:48:37;;;;;;;27.33;11.82;;;5.40;99.90;;;;;;4887755;29;20072;-86
2022/10/09 05:51:13;;;;;;;22.15;10.90;;;5.80;99.90;;;;;;4887989;29;20473;-88
2022/10/09 05:53:41;;;;;;;32.47;8.38;;;5.50;99.90;;;;;;4887299;29;20043;-88
2022/10/09 05:56:14;;;;;;;16.70;8.25;;;5.40;99.90;;;;;;4885952;29;20063;-87
2022/10/09 05:58:41;;;;;;;139.20;12.85;;;5.40;99.90;;;;;;4887422;29;20063;-87
2022/10/09 06:01:07;;;;;;;18.13;8.65;;;5.40;99.90;;;;;;4886534;29;20043;-87
2022/10/09 06:03:35;;;;;;;25.50;10.05;;;5.70;99.90;;;;;;4894793;29;20092;-87
2022/10/09 06:06:03;;;;;;;28.20;9.73;;;5.40;99.90;;;;;;4893355;29;20036;-87
2022/10/09 06:08:31;;;;;;;21.40;10.07;;;5.40;99.90;;;;;;4895237;29;20056;-87
2022/10/09 06:10:57;;;;;;;15.13;8.43;;;5.50;99.90;;;;;;4895579;29;20139;-87
2022/10/09 06:13:23;;;;;;;15.30;7.60;;;5.70;99.90;;;;;;4894182;29;20159;-87
2022/10/09 06:15:53;;;;;;;17.17;8.05;;;5.90;99.90;;;;;;4895111;29;20139;-87
2022/10/09 06:18:19;;;;;;;22.83;9.85;;;5.50;99.90;;;;;;4893898;29;20051;-86
2022/10/09 06:20:56;;;;;;;19.00;8.27;;;5.50;99.90;;;;;;4890767;29;20041;-87
2022/10/09 06:23:22;;;;;;;21.42;9.13;;;5.50;99.90;;;;;;4893472;29;20044;-87
2022/10/09 06:25:53;;;;;;;16.90;8.05;;;5.70;99.90;;;;;;4895840;29;20075;-86
2022/10/09 06:28:19;;;;;;;17.20;8.68;;;5.60;99.90;;;;;;4896224;29;20044;-87
2022/10/09 06:30:44;;;;;;;16.17;8.57;;;5.80;99.90;;;;;;4893609;29;20044;-87
2022/10/09 06:33:10;;;;;;;23.10;10.90;;;5.70;99.90;;;;;;4912425;29;20044;-87
2022/10/09 06:35:36;;;;;;;26.48;10.82;;;5.80;99.90;;;;;;4897177;29;20543;-88
2022/10/09 06:38:02;;;;;;;18.95;10.30;;;5.90;99.90;;;;;;4894031;29;20471;-87
2022/10/09 06:40:27;;;;;;;24.50;11.50;;;6.10;99.90;;;;;;4895542;29;20037;-88
2022/10/09 06:42:53;;;;;;;26.67;11.38;;;6.00;99.90;;;;;;4893885;29;20440;-87
2022/10/09 06:45:19;;;;;;;21.77;10.93;;;6.10;99.90;;;;;;4910363;29;20101;-87
2022/10/09 06:47:45;;;;;;;23.75;10.55;;;6.10;99.90;;;;;;4895195;29;20519;-87
2022/10/09 06:50:10;;;;;;;17.27;9.55;;;5.70;99.90;;;;;;4893435;29;20444;-88
2022/10/09 06:52:36;;;;;;;16.88;9.48;;;6.60;99.90;;;;;;4893636;29;20079;-87
2022/10/09 06:55:02;;;;;;;21.85;9.98;;;6.20;99.90;;;;;;4896561;29;20155;-87
2022/10/09 06:57:28;;;;;;;21.98;10.95;;;6.10;99.90;;;;;;4894375;29;20043;-88
2022/10/09 06:59:53;;;;;;;27.33;12.60;;;6.30;99.90;;;;;;4895282;29;20146;-87
2022/10/09 07:02:19;;;;;;;23.58;13.45;;;6.30;99.90;;;;;;4894975;29;20055;-87
2022/10/09 07:04:46;;;;;;;24.88;14.25;;;6.80;99.90;;;;;;4894905;29;20048;-87
2022/10/09 07:07:11;;;;;;;35.72;17.83;;;6.50;99.90;;;;;;4896038;29;20123;-88
2022/10/09 07:09:37;;;;;;;37.95;20.65;;;6.50;99.90;;;;;;4894546;29;20523;-87
2022/10/09 07:12:03;;;;;;;46.92;23.55;;;6.60;99.90;;;;;;4894746;29;20044;-87
2022/10/09 07:14:29;;;;;;;52.92;29.08;;;6.60;99.90;;;;;;4896360;29;21137;-88
2022/10/09 07:16:55;;;;;;;48.83;29.42;;;6.70;99.90;;;;;;4887140;29;20485;-87
2022/10/09 07:19:21;;;;;;;56.00;30.15;;;6.90;99.90;;;;;;4881758;29;20071;-87
2022/10/09 07:21:51;;;;;;;47.15;30.23;;;6.80;99.90;;;;;;4897016;29;20040;-87
2022/10/09 07:24:19;;;;;;;40.45;27.67;;;6.80;99.90;;;;;;4881097;29;20064;-86
2022/10/09 07:26:46;;;;;;;48.97;26.38;;;7.10;99.90;;;;;;4910167;29;20047;-87
2022/10/09 07:29:13;;;;;;;35.67;22.20;;;6.90;99.90;;;;;;4903086;29;20046;-86
2022/10/09 07:31:39;;;;;;;33.95;19.60;;;7.80;99.90;;;;;;4897786;29;20043;-89
2022/10/09 07:34:05;;;;;;;31.88;17.20;;;7.10;99.90;;;;;;4896395;29;20563;-90
2022/10/09 07:36:31;;;;;;;27.05;16.85;;;7.30;99.90;;;;;;4883654;29;20135;-85
2022/10/09 07:39:19;;;;;;;26.85;15.32;;;7.20;99.90;;;;;;4882324;29;20057;-89
2022/10/09 07:41:52;;;;;;;26.95;13.82;;;7.50;99.90;;;;;;4893310;29;20062;-86
2022/10/09 07:44:42;;;;;;;23.10;13.27;;;7.40;99.90;;;;;;4885405;29;20137;-87
2022/10/09 07:47:33;;;;;;;25.60;12.32;;;7.30;99.90;;;;;;4897595;29;20056;-88
2022/10/09 07:50:34;;;;;;;21.52;11.52;;;7.60;99.90;;;;;;4897425;29;20059;-88
2022/10/09 07:53:56;;;;;;;22.27;11.65;;;7.80;99.90;;;;;;4881913;29;20052;-88
2022/10/09 08:00:27;;;;;;;;;;;;;;;;;;;;;
2022/10/09 08:03:28;;;;;;;14.23;8.27;;;8.20;99.90;;;;;;4867518;29;20488;-87
2022/10/09 08:06:23;;;;;;;16.63;8.40;;;8.30;99.90;;;;;;4883245;29;20048;-88
2022/10/09 08:08:52;;;;;;;14.60;6.97;;;8.50;99.90;;;;;;4893567;29;20056;-88
2022/10/09 08:11:24;;;;;;;13.57;6.80;;;8.50;99.90;;;;;;4887189;29;20048;-87
2022/10/09 08:15:03;;;;;;;;;;;;;;;;;;;;;
2022/10/09 08:18:36;;;;;;;;;;;;;;;;;;;;;
2022/10/09 08:22:17;;;;;;;13.65;5.40;;;8.90;99.90;;;;;;4855693;29;20103;-88
2022/10/09 08:25:51;;;;;;;;;;;;;;;;;;;;;
2022/10/09 08:40:54;;;;;;;;;;;;;;;;;;;;;
2022/10/09 08:52:09;;;;;;;11.88;4.18;;;10.60;99.90;;;;;;4799210;29;20054;-91
2022/10/09 08:59:24;;;;;;;9.68;3.47;;;10.70;99.90;;;;;;4810669;29;20459;-88
2022/10/09 09:02:47;;;;;;;10.65;3.13;;;10.60;99.90;;;;;;4802985;29;20607;-89
2022/10/09 09:06:03;;;;;;;15.35;3.42;;;11.20;99.90;;;;;;4816559;29;20085;-89
2022/10/09 09:09:06;;;;;;;10.75;3.15;;;11.50;99.90;;;;;;4772374;29;20536;-87
2022/10/09 09:12:10;;;;;;;7.72;2.42;;;11.30;99.90;;;;;;4792151;29;20054;-86
2022/10/09 09:18:31;;;;;;;9.10;2.70;;;11.40;99.90;;;;;;4842802;29;20088;-87
2022/10/09 09:21:19;;;;;;;15.43;2.92;;;11.70;99.90;;;;;;4839414;29;20045;-88
2022/10/09 09:23:48;;;;;;;10.93;2.85;;;11.70;99.90;;;;;;4911692;29;20161;-87
2022/10/09 09:27:03;;;;;;;9.77;2.42;;;11.80;99.90;;;;;;4879658;29;20075;-89
2022/10/09 09:29:45;;;;;;;10.43;2.80;;;11.90;99.90;;;;;;4851745;29;20052;-87
2022/10/09 09:32:22;;;;;;;11.82;3.47;;;11.90;99.90;;;;;;4879786;29;20048;-86
2022/10/09 09:35:23;;;;;;;12.60;2.75;;;11.80;99.90;;;;;;4878232;29;20135;-87
2022/10/09 09:37:57;;;;;;;10.63;2.15;;;12.10;99.90;;;;;;4879342;29;20048;-86
2022/10/09 09:40:31;;;;;;;8.82;1.63;;;12.20;99.90;;;;;;4877923;29;20434;-86
2022/10/09 09:43:03;;;;;;;9.43;1.70;;;12.20;99.90;;;;;;4894816;29;20060;-86
2022/10/09 09:45:29;;;;;;;7.13;1.90;;;11.90;99.90;;;;;;4894543;29;20044;-86
2022/10/09 09:51:20;;;;;;;10.80;2.60;;;12.30;99.90;;;;;;4909704;29;20548;-87
2022/10/09 09:53:51;;;;;;;10.65;2.33;;;12.60;99.90;;;;;;4878841;29;20059;-86
2022/10/09 09:56:49;;;;;;;9.38;2.00;;;12.60;99.90;;;;;;4894332;29;20079;-86
2022/10/09 09:59:28;;;;;;;9.77;2.05;;;12.60;99.90;;;;;;4894817;29;20044;-85
2022/10/09 10:02:14;;;;;;;9.60;1.90;;;12.40;99.90;;;;;;4878511;29;20143;-86
2022/10/09 10:04:58;;;;;;;9.68;1.88;;;12.80;99.90;;;;;;4894516;29;20066;-85
2022/10/09 10:07:50;;;;;;;9.32;1.90;;;12.90;99.90;;;;;;4898017;29;20094;-91
2022/10/09 10:10:19;;;;;;;12.35;2.25;;;12.90;99.90;;;;;;4891818;29;20059;-94
2022/10/09 10:13:03;;;;;;;12.98;2.25;;;13.00;99.90;;;;;;4896951;29;20087;-94
2022/10/09 10:15:37;;;;;;;10.65;2.30;;;13.10;99.90;;;;;;4895311;29;20048;-93
2022/10/09 10:18:05;;;;;;;9.30;1.85;;;13.00;99.90;;;;;;4895378;29;20052;-91
2022/10/09 10:20:41;;;;;;;11.48;2.10;;;13.10;99.90;;;;;;4902188;29;20051;-93
2022/10/09 10:23:35;;;;;;;14.25;2.08;;;13.10;99.90;;;;;;4897942;29;20066;-93
2022/10/09 10:26:13;;;;;;;6.05;1.70;;;13.20;99.90;;;;;;4895216;29;20055;-92
2022/10/09 10:28:52;;;;;;;9.63;1.90;;;13.30;99.90;;;;;;4896087;29;20138;-93
2022/10/09 10:31:37;;;;;;;15.05;2.30;;;13.30;99.90;;;;;;4895579;29;20044;-93
2022/10/09 10:34:06;;;;;;;9.18;1.70;;;13.40;99.90;;;;;;4893268;29;20043;-92
2022/10/09 10:36:33;;;;;;;9.63;1.60;;;13.50;99.90;;;;;;4897839;29;20451;-93
2022/10/09 10:39:11;;;;;;;12.05;1.50;;;13.80;99.90;;;;;;4898838;29;20051;-93
2022/10/09 10:41:44;;;;;;;8.07;1.63;;;13.60;99.90;;;;;;4887746;29;20095;-93
2022/10/09 10:44:21;;;;;;;10.05;2.03;;;13.60;99.90;;;;;;4900019;29;20052;-93
2022/10/09 10:46:58;;;;;;;11.45;1.98;;;13.60;99.90;;;;;;4900283;29;20048;-91
2022/10/09 10:49:25;;;;;;;9.95;1.95;;;13.70;99.90;;;;;;4901112;29;20051;-92
2022/10/09 10:52:12;;;;;;;12.02;2.13;;;13.70;99.90;;;;;;4903437;29;20089;-92
2022/10/09 10:54:41;;;;;;;10.23;1.52;;;13.70;99.90;;;;;;4905353;29;20432;-95
2022/10/09 10:57:27;;;;;;;10.70;1.63;;;13.80;99.90;;;;;;4902913;29;20052;-85
2022/10/09 10:59:57;;;;;;;7.55;1.65;;;13.90;99.90;;;;;;4898708;29;20054;-85
2022/10/09 11:02:36;;;;;;;8.40;1.60;;;14.00;99.90;;;;;;4916510;29;20563;-85
2022/10/09 11:05:17;;;;;;;8.68;1.67;;;14.10;99.90;;;;;;4906784;29;20095;-85
2022/10/09 11:08:02;;;;;;;12.27;1.70;;;14.10;99.90;;;;;;4916269;29;20090;-86
2022/10/09 11:10:40;;;;;;;11.45;1.58;;;14.10;99.90;;;;;;4916209;29;20043;-84
2022/10/09 11:13:17;;;;;;;10.45;2.63;;;14.10;99.90;;;;;;4915102;29;20138;-85
2022/10/09 11:15:44;;;;;;;9.57;1.42;;;14.10;99.90;;;;;;4916061;29;20043;-85
2022/10/09 11:18:15;;;;;;;10.27;1.42;;;14.10;99.90;;;;;;4915769;29;20103;-86
2022/10/09 11:20:43;;;;;;;7.28;1.48;;;14.10;99.90;;;;;;4915101;29;20145;-86
2022/10/09 11:23:24;;;;;;;8.70;1.35;;;14.20;99.90;;;;;;4898524;29;20052;-86
2022/10/09 11:26:01;;;;;;;8.38;1.52;;;14.20;99.90;;;;;;4896019;29;20044;-85
2022/10/09 11:28:36;;;;;;;8.93;1.63;;;14.20;99.90;;;;;;4897128;29;20044;-85
2022/10/09 11:31:18;;;;;;;8.88;1.50;;;14.20;99.90;;;;;;4896552;29;20048;-85
2022/10/09 11:33:49;;;;;;;5.93;1.20;;;14.20;99.90;;;;;;4896121;29;20044;-85
2022/10/09 11:36:26;;;;;;;7.82;1.40;;;14.10;99.90;;;;;;4895926;29;20051;-85
2022/10/09 11:38:59;;;;;;;8.27;1.52;;;14.10;99.90;;;;;;4896925;29;20159;-85
2022/10/09 11:41:25;;;;;;;;;;;14.20;99.90;;;;;;4896247;29;20051;-85
2022/10/09 11:43:57;;;;;;;8.23;1.20;;;14.20;99.90;;;;;;4896275;29;19934;-84
2022/10/09 11:46:43;;;;;;;8.90;1.60;;;14.20;99.90;;;;;;4896276;29;20346;-85
2022/10/09 11:49:19;;;;;;;8.80;1.83;;;14.30;99.90;;;;;;4896873;29;20299;-85
2022/10/09 11:52:00;;;;;;;8.10;1.30;;;14.30;99.90;;;;;;4896711;29;20169;-84
2022/10/09 11:54:27;;;;;;;8.57;1.60;;;14.30;99.90;;;;;;4895988;29;20052;-85
2022/10/09 11:56:57;;;;;;;10.10;1.25;;;14.20;99.90;;;;;;4896183;29;20047;-85
2022/10/09 11:59:29;;;;;;;10.73;1.92;;;14.10;99.90;;;;;;4897030;29;20070;-86
2022/10/09 12:01:56;;;;;;;10.63;1.48;;;14.20;99.90;;;;;;4894850;29;20493;-85
2022/10/09 12:04:31;;;;;;;6.65;1.40;;;14.30;99.90;;;;;;4896458;29;20056;-85
2022/10/09 12:07:01;;;;;;;6.03;1.27;;;14.40;99.90;;;;;;4895467;29;20477;-85
2022/10/09 12:09:35;;;;;;;10.57;1.60;;;14.50;99.90;;;;;;4896090;29;20064;-86
2022/10/09 12:12:06;;;;;;;7.28;1.25;;;14.50;99.90;;;;;;4895990;29;20052;-85
2022/10/09 12:14:34;;;;;;;9.48;1.25;;;14.60;99.90;;;;;;4895329;29;20086;-85
2022/10/09 12:17:01;;;;;;;11.50;1.40;;;14.70;99.90;;;;;;4896093;29;20401;-85
2022/10/09 12:19:37;;;;;;;10.20;1.48;;;14.60;99.90;;;;;;4896152;29;20515;-85
2022/10/09 12:22:20;;;;;;;8.52;1.98;;;14.60;99.90;;;;;;4894584;29;20050;-85
2022/10/09 12:24:49;;;;;;;;;;;14.60;99.90;;;;;;4896366;29;20056;-85
2022/10/09 12:27:22;;;;;;;8.63;1.55;;;14.60;99.90;;;;;;4896115;29;19923;-85
2022/10/09 12:29:54;;;;;;;8.73;1.08;;;14.60;99.90;;;;;;4894794;29;20083;-85
2022/10/09 12:32:27;;;;;;;5.85;0.85;;;14.60;99.90;;;;;;4896326;29;20059;-85
2022/10/09 12:34:55;;;;;;;7.65;1.23;;;14.50;99.90;;;;;;4894726;29;20052;-85
2022/10/09 12:37:30;;;;;;;11.65;1.38;;;14.50;99.90;;;;;;4895334;29;20043;-85
2022/10/09 12:40:12;;;;;;;7.88;1.50;;;14.50;99.90;;;;;;4895674;29;20054;-85
2022/10/09 12:42:38;;;;;;;9.13;1.73;;;14.50;99.90;;;;;;4895494;29;20044;-85
2022/10/09 12:45:04;;;;;;;10.10;1.95;;;14.50;99.90;;;;;;4895641;29;20135;-86
2022/10/09 12:47:34;;;;;;;7.30;1.25;;;14.50;99.90;;;;;;4895572;29;20052;-86
2022/10/09 12:50:12;;;;;;;6.20;1.55;;;14.50;99.90;;;;;;4893893;29;20048;-85
2022/10/09 12:52:47;;;;;;;6.88;1.30;;;14.50;99.90;;;;;;4895535;29;20056;-86
2022/10/09 12:55:41;;;;;;;12.27;1.50;;;14.50;99.90;;;;;;4895495;29;20453;-86
2022/10/09 12:58:19;;;;;;;9.93;1.52;;;14.50;99.90;;;;;;4894809;29;20501;-85
2022/10/09 13:00:49;;;;;;;7.63;1.50;;;14.50;99.90;;;;;;4895122;29;20052;-86
2022/10/09 13:03:36;;;;;;;7.50;1.35;;;14.50;99.90;;;;;;4895205;29;20044;-85
2022/10/09 13:06:06;;;;;;;12.63;1.65;;;14.40;99.90;;;;;;4894554;29;20615;-85
2022/10/09 13:08:37;;;;;;;5.15;1.20;;;14.50;99.90;;;;;;4895344;29;20095;-85
2022/10/09 13:11:10;;;;;;;10.20;1.70;;;14.50;99.90;;;;;;4894289;29;20052;-86
2022/10/09 13:13:37;;;;;;;7.05;1.67;;;14.50;99.90;;;;;;4894949;29;20056;-86
2022/10/09 13:16:08;;;;;;;9.85;1.35;;;14.50;99.90;;;;;;4894916;29;20059;-86
2022/10/09 13:18:35;;;;;;;13.50;1.77;;;14.50;99.90;;;;;;4894454;29;20381;-85
2022/10/09 13:21:04;;;;;;;7.35;1.77;;;14.50;99.90;;;;;;4894434;29;20626;-86
2022/10/09 13:23:33;;;;;;;10.48;1.60;;;14.50;99.90;;;;;;4895360;29;20044;-85
2022/10/09 13:26:01;;;;;;;10.07;1.85;;;14.50;99.90;;;;;;4910507;29;20139;-86
2022/10/09 13:28:28;;;;;;;9.25;1.80;;;14.60;99.90;;;;;;4895226;29;20044;-85
2022/10/09 13:30:53;;;;;;;7.80;1.55;;;14.60;99.90;;;;;;4894836;29;20138;-85
2022/10/09 13:33:19;;;;;;;7.95;1.65;;;14.60;99.90;;;;;;4893983;29;20134;-85
2022/10/09 13:35:45;;;;;;;8.77;2.15;;;14.60;99.90;;;;;;4893580;29;20386;-85
2022/10/09 13:38:14;;;;;;;8.43;1.85;;;14.60;99.90;;;;;;4894720;29;20066;-86
2022/10/09 13:40:41;;;;;;;7.00;2.03;;;14.60;99.90;;;;;;4893801;29;20497;-86
2022/10/09 13:43:09;;;;;;;8.63;1.90;;;14.50;99.90;;;;;;4894658;29;20052;-86
2022/10/09 13:45:35;;;;;;;9.93;1.83;;;14.60;99.90;;;;;;4895034;29;20039;-86
2022/10/09 13:48:01;;;;;;;11.25;2.33;;;14.60;99.90;;;;;;4893890;29;20544;-85
2022/10/09 13:50:26;;;;;;;11.93;2.00;;;14.50;99.90;;;;;;4893186;29;20131;-86
2022/10/09 13:52:52;;;;;;;6.07;1.50;;;14.50;99.90;;;;;;4893546;29;20084;-86